createdAt,value
2023-05-11T00:02:25.009Z,54.71
2023-05-11T00:04:56.885Z,55.18
2023-05-11T00:07:29.602Z,55.21
2023-05-11T00:10:01.517Z,55.30
2023-05-11T00:12:33.517Z,55.47
2023-05-11T00:15:05.796Z,55.71
2023-05-11T00:17:37.631Z,55.59
2023-05-11T00:20:09.950Z,55.63
2023-05-11T00:22:44.106Z,55.44
2023-05-11T00:25:15.116Z,56.07
2023-05-11T00:27:46.816Z,55.88
2023-05-11T00:30:19.101Z,55.65
2023-05-11T00:32:53.008Z,55.46
2023-05-11T00:35:25.123Z,55.38
2023-05-11T00:37:57.155Z,55.37
2023-05-11T00:40:28.989Z,55.62
2023-05-11T00:43:00.673Z,56.04
2023-05-11T00:45:34.092Z,55.92
2023-05-11T00:48:05.862Z,56.00
2023-05-11T00:50:38.631Z,55.97
2023-05-11T00:53:11.621Z,56.20
2023-05-11T00:55:43.357Z,56.25
2023-05-11T00:58:16.646Z,56.36
2023-05-11T01:00:48.951Z,56.17
2023-05-11T01:03:20.954Z,56.25
2023-05-11T01:06:12.541Z,56.40
2023-05-11T01:08:49.773Z,56.57
2023-05-11T01:11:44.414Z,56.99
2023-05-11T01:14:19.109Z,57.26
2023-05-11T01:16:53.135Z,57.43
2023-05-11T01:19:49.636Z,57.36
2023-05-11T01:22:33.985Z,57.35
2023-05-11T01:25:20.682Z,57.91
2023-05-11T01:28:15.860Z,58.27
2023-05-11T01:30:58.925Z,58.36
2023-05-11T01:33:32.928Z,58.75
2023-05-11T01:36:09.969Z,58.98
2023-05-11T01:38:42.679Z,59.41
2023-05-11T01:41:17.467Z,59.50
2023-05-11T01:43:52.385Z,59.86
2023-05-11T01:46:26.439Z,59.87
2023-05-11T01:48:58.243Z,59.94
2023-05-11T01:51:31.651Z,59.94
2023-05-11T01:54:03.347Z,59.69
2023-05-11T01:56:37.347Z,59.69
2023-05-11T01:59:09.032Z,59.54
2023-05-11T02:01:40.795Z,59.24
2023-05-11T02:04:13.355Z,59.54
2023-05-11T02:06:45.224Z,59.44
2023-05-11T02:09:18.045Z,59.92
2023-05-11T02:11:50.484Z,59.49
2023-05-11T02:14:22.298Z,59.36
2023-05-11T02:16:54.393Z,59.08
2023-05-11T02:19:26.351Z,59.30
2023-05-11T02:21:57.903Z,59.36
2023-05-11T02:24:29.707Z,59.42
2023-05-11T02:27:01.303Z,59.46
2023-05-11T02:29:33.740Z,59.54
2023-05-11T02:32:11.301Z,59.73
2023-05-11T02:34:44.424Z,60.00
2023-05-11T02:37:18.263Z,60.35
2023-05-11T02:39:51.225Z,60.67
2023-05-11T02:42:23.836Z,60.87
2023-05-11T02:45:04.587Z,60.90
2023-05-11T02:47:40.871Z,61.08
2023-05-11T02:50:13.803Z,61.48
2023-05-11T02:52:47.460Z,61.56
2023-05-11T02:55:19.447Z,61.64
2023-05-11T02:57:51.503Z,62.19
2023-05-11T03:00:23.570Z,62.38
2023-05-11T03:02:55.992Z,62.59
2023-05-11T03:05:27.976Z,62.32
2023-05-11T03:08:00.277Z,62.15
2023-05-11T03:10:33.393Z,62.11
2023-05-11T03:13:06.364Z,62.23
2023-05-11T03:15:38.638Z,62.41
2023-05-11T03:18:10.858Z,62.54
2023-05-11T03:20:43.160Z,62.53
2023-05-11T03:23:14.812Z,62.42
2023-05-11T03:25:46.747Z,62.28
2023-05-11T03:28:18.612Z,62.36
2023-05-11T03:30:51.982Z,62.35
2023-05-11T03:33:23.746Z,62.46
2023-05-11T03:35:55.608Z,62.74
2023-05-11T03:38:27.889Z,62.71
2023-05-11T03:40:59.859Z,63.04
2023-05-11T03:43:33.465Z,63.13
2023-05-11T03:46:05.338Z,63.19
2023-05-11T03:48:37.166Z,63.54
2023-05-11T03:51:09.559Z,64.13
2023-05-11T03:53:41.275Z,64.61
2023-05-11T03:56:13.148Z,64.78
2023-05-11T03:58:45.055Z,65.10
2023-05-11T04:01:16.646Z,65.15
2023-05-11T04:03:53.886Z,65.29
2023-05-11T04:06:26.202Z,65.27
2023-05-11T04:08:59.467Z,65.24
2023-05-11T04:11:31.199Z,65.19
2023-05-11T04:14:02.820Z,65.34
2023-05-11T04:16:34.709Z,65.59
2023-05-11T04:19:07.404Z,65.55
2023-05-11T04:21:39.572Z,65.49
2023-05-11T04:24:11.254Z,65.35
2023-05-11T04:26:43.631Z,65.26
2023-05-11T04:29:15.457Z,65.14
2023-05-11T04:31:46.991Z,64.96
2023-05-11T04:34:18.931Z,64.84
2023-05-11T04:36:51.404Z,65.10
2023-05-11T04:39:23.199Z,65.29
2023-05-11T04:41:54.959Z,65.28
2023-05-11T04:44:39.286Z,66.03
2023-05-11T04:47:11.005Z,66.92
2023-05-11T04:49:44.305Z,67.33
2023-05-11T04:52:16.263Z,67.56
2023-05-11T04:54:49.517Z,67.30
2023-05-11T04:57:21.182Z,67.03
2023-05-11T04:59:52.966Z,66.80
2023-05-11T05:02:25.092Z,66.60
2023-05-11T05:04:56.663Z,65.88
2023-05-11T05:07:28.738Z,64.83
2023-05-11T05:10:00.840Z,64.17
2023-05-11T05:12:32.702Z,62.52
2023-05-11T05:15:05.716Z,61.05
2023-05-11T05:17:37.452Z,59.00
2023-05-11T05:20:09.511Z,56.99
2023-05-11T05:22:41.911Z,55.77
2023-05-11T05:25:13.952Z,54.94
2023-05-11T05:27:46.044Z,54.00
2023-05-11T05:30:20.233Z,52.85
2023-05-11T05:32:53.060Z,53.74
2023-05-11T05:35:24.654Z,53.29
2023-05-11T05:37:57.264Z,54.27
2023-05-11T05:40:29.436Z,53.96
2023-05-11T05:43:01.282Z,54.51
2023-05-11T05:45:33.705Z,55.46
2023-05-11T05:48:06.352Z,57.22
2023-05-11T05:50:49.239Z,53.05
2023-05-11T05:53:21.602Z,50.88
2023-05-11T05:55:53.499Z,51.20
2023-05-11T05:58:25.456Z,49.44
2023-05-11T06:00:57.351Z,48.11
2023-05-11T06:03:29.625Z,45.43
2023-05-11T06:06:04.756Z,44.81
2023-05-11T06:08:49.106Z,43.82
2023-05-11T06:11:21.945Z,43.96
2023-05-11T06:13:54.905Z,42.72
2023-05-11T06:16:27.774Z,41.45
2023-05-11T06:18:59.594Z,39.03
2023-05-11T06:21:31.552Z,36.85
2023-05-11T06:24:03.829Z,37.95
2023-05-11T06:26:37.492Z,34.15
2023-05-11T06:29:09.830Z,32.64
2023-05-11T06:31:42.302Z,32.98
2023-05-11T06:34:14.031Z,32.64
2023-05-11T06:36:46.088Z,32.58
2023-05-11T06:39:17.981Z,33.12
2023-05-11T06:41:51.285Z,33.82
2023-05-11T06:44:23.033Z,34.38
2023-05-11T06:46:56.715Z,34.35
2023-05-11T06:49:28.810Z,33.20
2023-05-11T06:52:00.705Z,32.17
2023-05-11T06:54:32.732Z,30.98
2023-05-11T06:57:05.357Z,29.35
2023-05-11T06:59:37.009Z,33.37
2023-05-11T07:02:09.550Z,30.39
2023-05-11T07:04:41.458Z,30.58
2023-05-11T07:07:13.263Z,30.85
2023-05-11T07:09:45.844Z,31.17
2023-05-11T07:12:17.415Z,31.35
2023-05-11T07:14:49.809Z,31.44
2023-05-11T07:17:21.494Z,32.45
2023-05-11T07:19:56.954Z,32.18
2023-05-11T07:22:28.698Z,31.25
2023-05-11T07:25:01.696Z,31.40
2023-05-11T07:27:34.918Z,30.97
2023-05-11T07:30:07.971Z,30.50
2023-05-11T07:32:39.645Z,31.07
2023-05-11T07:35:11.582Z,31.17
2023-05-11T07:37:43.490Z,30.96
2023-05-11T07:40:15.117Z,30.27
2023-05-11T07:42:48.487Z,28.31
2023-05-11T07:45:20.056Z,28.08
2023-05-11T07:47:51.794Z,27.16
2023-05-11T07:50:24.680Z,27.64
2023-05-11T07:52:57.038Z,27.51
2023-05-11T07:55:30.730Z,27.57
2023-05-11T07:58:02.576Z,26.52
2023-05-11T08:00:34.405Z,27.19
2023-05-11T08:03:06.681Z,26.95
2023-05-11T08:05:39.055Z,25.75
2023-05-11T08:08:10.943Z,25.41
2023-05-11T08:10:42.756Z,25.43
2023-05-11T08:13:14.634Z,24.78
2023-05-11T08:15:46.381Z,25.18
2023-05-11T08:18:18.402Z,24.77
2023-05-11T08:20:50.536Z,23.87
2023-05-11T08:23:23.298Z,24.86
2023-05-11T08:25:56.211Z,23.25
2023-05-11T08:28:27.976Z,23.34
2023-05-11T08:31:00.118Z,22.33
2023-05-11T08:33:37.985Z,22.75
2023-05-11T08:36:06.649Z,23.34
2023-05-11T08:38:38.588Z,23.96
2023-05-11T08:41:14.400Z,23.88
2023-05-11T08:43:47.390Z,25.27
2023-05-11T08:46:21.783Z,25.62
2023-05-11T08:48:53.403Z,25.57
2023-05-11T08:51:25.312Z,25.50
2023-05-11T08:53:58.823Z,25.00
2023-05-11T08:56:31.052Z,26.01
2023-05-11T08:59:03.723Z,26.04
2023-05-11T09:01:40.114Z,25.70
2023-05-11T09:04:11.922Z,25.32
2023-05-11T09:06:43.908Z,26.48
2023-05-11T09:09:16.857Z,26.51
2023-05-11T09:11:49.166Z,26.33
2023-05-11T09:14:27.005Z,25.62
2023-05-11T09:16:54.588Z,24.88
2023-05-11T09:19:37.235Z,24.70
2023-05-11T09:22:09.126Z,24.53
2023-05-11T09:24:43.178Z,25.22
2023-05-11T09:27:21.136Z,23.83
2023-05-11T09:29:52.291Z,24.16
2023-05-11T09:32:23.859Z,23.55
2023-05-11T09:34:57.125Z,23.20
2023-05-11T09:37:28.778Z,23.38
2023-05-11T09:42:35.374Z,22.01
2023-05-11T09:45:08.244Z,21.47
2023-05-11T09:47:41.095Z,21.91
2023-05-11T09:52:52.615Z,20.73
2023-05-11T09:55:24.409Z,22.33
2023-05-11T09:57:58.283Z,20.59
2023-05-11T10:00:29.800Z,21.47
2023-05-11T10:03:05.970Z,20.92
2023-05-11T10:05:37.690Z,21.00
2023-05-11T10:08:09.682Z,20.84
2023-05-11T10:10:41.242Z,21.16
2023-05-11T10:13:13.208Z,20.98
2023-05-11T10:15:44.887Z,20.56
2023-05-11T10:18:20.099Z,20.04
2023-05-11T10:20:50.946Z,20.83
2023-05-11T10:23:22.499Z,21.36
2023-05-11T10:25:54.974Z,19.47
2023-05-11T10:28:26.589Z,21.79
2023-05-11T10:30:59.050Z,26.77
2023-05-11T10:33:31.230Z,23.51
2023-05-11T10:36:03.529Z,23.56
2023-05-11T10:38:35.627Z,19.74
2023-05-11T10:41:10.669Z,19.77
2023-05-11T10:43:45.835Z,19.08
2023-05-11T10:46:30.630Z,21.06
2023-05-11T10:49:23.919Z,20.08
2023-05-11T10:52:26.345Z,20.04
2023-05-11T10:55:23.163Z,19.79
2023-05-11T10:58:10.549Z,20.83
2023-05-11T11:01:15.884Z,21.70
2023-05-11T11:04:04.549Z,21.23
2023-05-11T11:06:38.938Z,21.88
2023-05-11T11:09:15.874Z,21.70
2023-05-11T11:11:50.323Z,22.61
2023-05-11T11:14:22.191Z,20.80
2023-05-11T11:20:01.830Z,22.84
2023-05-11T11:25:37.948Z,21.50
2023-05-11T11:28:09.684Z,21.75
2023-05-11T11:30:41.500Z,22.13
2023-05-11T11:33:18.304Z,22.04
2023-05-11T11:35:50.672Z,22.19
2023-05-11T11:38:22.760Z,22.14
2023-05-11T11:40:54.555Z,22.20
2023-05-11T11:43:28.810Z,21.18
2023-05-11T11:46:02.976Z,21.23
2023-05-11T11:48:57.005Z,21.62
2023-05-11T11:51:29.617Z,21.20
2023-05-11T11:54:01.351Z,21.15
2023-05-11T11:56:36.778Z,21.51
2023-05-11T11:59:10.240Z,21.23
2023-05-11T12:01:42.776Z,21.93
2023-05-11T12:04:51.307Z,21.70
2023-05-11T12:07:23.185Z,22.48
2023-05-11T12:09:57.621Z,21.77
2023-05-11T12:12:30.230Z,21.35
2023-05-11T12:15:03.617Z,21.59
2023-05-11T12:17:39.329Z,20.62
2023-05-11T12:20:32.803Z,20.75
2023-05-11T12:23:04.626Z,20.27
2023-05-11T12:25:37.665Z,20.65
2023-05-11T12:28:11.202Z,20.77
2023-05-11T12:33:26.842Z,21.19
2023-05-11T12:35:58.658Z,21.29
2023-05-11T12:38:30.242Z,22.50
2023-05-11T12:41:02.380Z,22.56
2023-05-11T12:43:34.592Z,21.52
2023-05-11T12:46:07.275Z,23.03
2023-05-11T12:48:39.572Z,23.11
2023-05-11T12:51:11.603Z,23.28
2023-05-11T12:53:43.422Z,23.64
2023-05-11T12:56:15.588Z,24.25
2023-05-11T12:58:47.358Z,25.36
2023-05-11T13:01:20.639Z,25.21
2023-05-11T13:03:52.794Z,23.95
2023-05-11T13:06:24.653Z,23.56
2023-05-11T13:08:56.740Z,24.38
2023-05-11T13:11:28.672Z,23.83
2023-05-11T13:14:00.438Z,23.58
2023-05-11T13:16:33.946Z,23.78
2023-05-11T13:19:08.602Z,23.50
2023-05-11T13:21:40.341Z,24.38
2023-05-11T13:24:43.644Z,24.01
2023-05-11T13:27:15.926Z,23.93
2023-05-11T13:29:48.051Z,23.09
2023-05-11T13:32:20.040Z,23.92
2023-05-11T13:34:51.722Z,24.03
2023-05-11T13:37:25.402Z,23.71
2023-05-11T13:39:57.392Z,23.92
2023-05-11T13:42:29.917Z,24.38
2023-05-11T13:45:01.524Z,25.20
2023-05-11T13:47:34.646Z,24.14
2023-05-11T13:50:09.200Z,24.92
2023-05-11T13:52:40.980Z,25.08
2023-05-11T13:55:23.690Z,26.10
2023-05-11T13:57:56.479Z,25.18
2023-05-11T14:00:28.205Z,25.15
2023-05-11T14:03:00.490Z,24.47
2023-05-11T14:05:32.616Z,24.88
2023-05-11T14:08:05.905Z,24.37
2023-05-11T14:10:37.863Z,24.82
2023-05-11T14:13:09.818Z,25.23
2023-05-11T14:15:41.824Z,25.57
2023-05-11T14:18:14.221Z,24.47
2023-05-11T14:20:46.285Z,25.66
2023-05-11T14:23:18.350Z,25.55
2023-05-11T14:25:50.384Z,25.10
2023-05-11T14:28:22.150Z,25.01
2023-05-11T14:30:53.755Z,24.69
2023-05-11T14:33:25.574Z,25.16
2023-05-11T14:35:57.184Z,25.67
2023-05-11T14:38:29.399Z,25.14
2023-05-11T14:41:02.067Z,25.54
2023-05-11T14:43:34.922Z,25.67
2023-05-11T14:46:06.973Z,25.88
2023-05-11T14:48:38.878Z,25.17
2023-05-11T14:51:10.395Z,25.02
2023-05-11T14:53:42.324Z,25.25
2023-05-11T14:56:15.281Z,25.59
2023-05-11T14:58:47.253Z,26.27
2023-05-11T15:01:19.021Z,27.18
2023-05-11T15:03:50.801Z,27.26
2023-05-11T15:06:23.608Z,30.75
2023-05-11T15:08:55.376Z,27.86
2023-05-11T15:11:27.129Z,28.14
2023-05-11T15:13:58.905Z,28.41
2023-05-11T15:16:31.183Z,28.17
2023-05-11T15:19:02.975Z,28.26
2023-05-11T15:21:34.925Z,27.55
2023-05-11T15:24:08.672Z,27.95
2023-05-11T15:26:40.349Z,28.04
2023-05-11T15:29:14.110Z,27.45
2023-05-11T15:31:45.819Z,27.55
2023-05-11T15:34:17.504Z,28.48
2023-05-11T15:36:49.899Z,28.86
2023-05-11T15:39:21.673Z,28.72
2023-05-11T15:41:53.364Z,29.02
2023-05-11T15:44:24.997Z,28.78
2023-05-11T15:46:56.813Z,28.05
2023-05-11T15:49:28.602Z,28.99
2023-05-11T15:52:00.458Z,29.01
2023-05-11T15:54:35.232Z,28.65
2023-05-11T15:57:06.977Z,28.96
2023-05-11T15:59:38.794Z,28.48
2023-05-11T16:02:10.740Z,28.47
2023-05-11T16:04:42.537Z,28.68
2023-05-11T16:07:14.231Z,28.66
2023-05-11T16:09:46.503Z,28.47
2023-05-11T16:12:18.205Z,28.73
2023-05-11T16:14:50.483Z,28.72
2023-05-11T16:17:22.241Z,29.16
2023-05-11T16:19:54.291Z,28.98
2023-05-11T16:22:26.326Z,29.05
2023-05-11T16:24:58.578Z,29.35
2023-05-11T16:27:30.545Z,29.29
2023-05-11T16:30:21.786Z,30.33
2023-05-11T16:32:37.384Z,30.50
2023-05-11T16:35:09.344Z,30.28
2023-05-11T16:37:42.762Z,30.94
2023-05-11T16:40:14.737Z,31.01
2023-05-11T16:42:47.317Z,30.53
2023-05-11T16:45:19.343Z,30.75
2023-05-11T16:47:52.051Z,32.56
2023-05-11T16:50:23.746Z,31.99
2023-05-11T16:52:55.710Z,31.15
2023-05-11T16:55:28.067Z,32.11
2023-05-11T16:57:59.876Z,32.20
2023-05-11T17:00:34.085Z,32.05
2023-05-11T17:03:05.494Z,32.00
2023-05-11T17:05:37.754Z,32.52
2023-05-11T17:08:09.452Z,32.47
2023-05-11T17:10:41.807Z,32.67
2023-05-11T17:13:13.572Z,32.90
2023-05-11T17:15:45.193Z,32.52
2023-05-11T17:18:17.595Z,33.41
2023-05-11T17:20:57.259Z,33.48
2023-05-11T17:23:28.865Z,33.64
2023-05-11T17:26:00.600Z,33.71
2023-05-11T17:28:32.457Z,33.07
2023-05-11T17:31:14.451Z,34.15
2023-05-11T17:33:46.674Z,33.19
2023-05-11T17:36:18.811Z,33.30
2023-05-11T17:38:51.607Z,34.70
2023-05-11T17:41:23.274Z,35.45
2023-05-11T17:43:55.077Z,34.82
2023-05-11T17:46:28.293Z,34.84
2023-05-11T17:49:00.214Z,35.61
2023-05-11T17:51:31.994Z,35.20
2023-05-11T17:54:03.585Z,35.17
2023-05-11T17:56:35.368Z,34.72
2023-05-11T17:59:07.443Z,34.78
2023-05-11T18:01:39.761Z,33.57
2023-05-11T18:04:13.332Z,33.86
2023-05-11T18:06:45.504Z,34.26
2023-05-11T18:09:19.180Z,35.10
2023-05-11T18:11:51.229Z,35.33
2023-05-11T18:14:22.947Z,35.93
2023-05-11T18:16:54.573Z,35.70
2023-05-11T18:19:27.068Z,35.68
2023-05-11T18:22:00.661Z,37.06
2023-05-11T18:24:32.432Z,37.65
2023-05-11T18:27:04.781Z,36.14
2023-05-11T18:29:37.441Z,35.22
2023-05-11T18:34:52.560Z,35.39
2023-05-11T18:37:25.097Z,36.18
2023-05-11T18:39:57.139Z,35.40
2023-05-11T18:42:28.808Z,36.88
2023-05-11T18:45:01.335Z,35.83
2023-05-11T18:47:36.131Z,37.75
2023-05-11T18:50:08.750Z,37.75
2023-05-11T18:52:41.632Z,36.77
2023-05-11T18:55:13.551Z,36.56
2023-05-11T18:57:46.158Z,36.41
2023-05-11T19:00:19.055Z,37.36
2023-05-11T19:02:52.206Z,38.46
2023-05-11T19:05:24.098Z,37.92
2023-05-11T19:07:55.936Z,37.72
2023-05-11T19:10:28.158Z,37.55
2023-05-11T19:13:00.170Z,38.04
2023-05-11T19:15:33.388Z,38.27
2023-05-11T19:18:05.487Z,36.99
2023-05-11T19:20:39.449Z,36.45
2023-05-11T19:23:11.798Z,36.18
2023-05-11T19:25:44.117Z,35.88
2023-05-11T19:28:16.143Z,35.94
2023-05-11T19:30:47.899Z,35.94
2023-05-11T19:33:20.278Z,35.96
2023-05-11T19:35:52.156Z,36.38
2023-05-11T19:38:24.019Z,36.58
2023-05-11T19:40:56.434Z,36.49
2023-05-11T19:43:29.043Z,36.47
2023-05-11T19:46:02.774Z,36.21
2023-05-11T19:48:35.558Z,36.09
2023-05-11T19:51:07.277Z,36.47
2023-05-11T19:53:39.127Z,36.47
2023-05-11T19:56:10.800Z,36.85
2023-05-11T19:58:42.994Z,37.10
2023-05-11T20:01:15.269Z,37.17
2023-05-11T20:03:47.227Z,37.93
2023-05-11T20:06:19.284Z,37.53
2023-05-11T20:08:51.709Z,38.64
2023-05-11T20:11:23.435Z,38.19
2023-05-11T20:13:55.978Z,37.84
2023-05-11T20:16:28.834Z,37.70
2023-05-11T20:19:00.934Z,37.52
2023-05-11T20:21:33.852Z,37.65
2023-05-11T20:24:05.515Z,37.84
2023-05-11T20:26:37.620Z,37.92
2023-05-11T20:29:10.392Z,37.86
2023-05-11T20:31:42.158Z,38.08
2023-05-11T20:34:14.125Z,38.13
2023-05-11T20:36:47.424Z,38.01
2023-05-11T20:39:19.339Z,38.54
2023-05-11T20:41:51.367Z,38.36
2023-05-11T20:44:22.855Z,38.24
2023-05-11T20:46:54.744Z,38.20
2023-05-11T20:49:38.387Z,38.49
2023-05-11T20:52:00.414Z,38.50
2023-05-11T20:54:34.041Z,39.10
2023-05-11T20:57:05.987Z,39.35
2023-05-11T21:02:11.380Z,39.95
2023-05-11T21:04:42.965Z,40.17
2023-05-11T21:07:14.711Z,39.81
2023-05-11T21:09:46.504Z,39.42
2023-05-11T21:12:19.411Z,39.43
2023-05-11T21:14:51.197Z,39.13
2023-05-11T21:17:22.803Z,39.37
2023-05-11T21:19:54.678Z,39.30
2023-05-11T21:22:26.692Z,39.34
2023-05-11T21:24:58.399Z,40.06
2023-05-11T21:27:30.609Z,39.98
2023-05-11T21:30:02.383Z,40.44
2023-05-11T21:32:34.717Z,39.82
2023-05-11T21:35:07.239Z,39.49
2023-05-11T21:37:39.491Z,39.50
2023-05-11T21:40:12.222Z,39.01
2023-05-11T21:42:45.150Z,39.43
2023-05-11T21:45:16.906Z,40.87
2023-05-11T21:47:49.058Z,40.51
2023-05-11T21:50:21.014Z,40.38
2023-05-11T21:52:53.029Z,40.12
2023-05-11T21:55:24.718Z,40.85
2023-05-11T21:57:56.654Z,40.03
2023-05-11T22:00:28.458Z,41.85
2023-05-11T22:03:01.505Z,41.90
2023-05-11T22:05:33.295Z,42.69
2023-05-11T22:08:13.798Z,43.42
2023-05-11T22:10:38.653Z,44.53
2023-05-11T22:13:10.546Z,46.90
2023-05-11T22:15:42.402Z,45.08
2023-05-11T22:18:14.072Z,46.59
2023-05-11T22:20:45.635Z,48.42
2023-05-11T22:23:17.576Z,50.49
2023-05-11T22:25:49.207Z,51.84
2023-05-11T22:28:21.163Z,55.25
2023-05-11T22:30:53.209Z,58.95
2023-05-11T22:33:25.458Z,61.55
2023-05-11T22:35:57.514Z,62.98
2023-05-11T22:38:29.269Z,64.23
2023-05-11T22:41:02.874Z,64.75
2023-05-11T22:43:36.088Z,65.72
2023-05-11T22:46:08.052Z,66.72
2023-05-11T22:48:40.101Z,67.51
2023-05-11T22:51:11.887Z,68.94
2023-05-11T22:53:44.680Z,69.77
2023-05-11T22:56:16.920Z,70.48
2023-05-11T22:58:48.843Z,71.12
2023-05-11T23:01:21.004Z,69.04
2023-05-11T23:06:49.051Z,68.34
2023-05-11T23:09:21.213Z,65.87
2023-05-11T23:11:53.327Z,61.40
2023-05-11T23:14:25.241Z,58.84
2023-05-11T23:16:57.362Z,59.29
2023-05-11T23:19:29.286Z,58.11
2023-05-11T23:22:01.050Z,57.61
2023-05-11T23:24:33.156Z,56.57
2023-05-11T23:27:04.952Z,53.42
2023-05-11T23:29:37.257Z,52.50
2023-05-11T23:32:09.024Z,52.23
2023-05-11T23:34:40.701Z,53.84
2023-05-11T23:37:12.440Z,54.50
2023-05-11T23:39:44.125Z,55.09
2023-05-11T23:42:15.862Z,53.34
2023-05-11T23:44:47.622Z,53.74
2023-05-11T23:47:19.186Z,53.16
2023-05-11T23:49:50.930Z,52.29
2023-05-11T23:52:22.779Z,51.30
2023-05-11T23:54:54.348Z,50.64
2023-05-11T23:57:26.126Z,50.32
2023-05-11T23:59:58.176Z,49.65
